Time,TemperatureF,DewpointF,PressureIn,WindDirection,WindDirectionDegrees,WindSpeedMPH,WindSpeedGustMPH,Humidity,HourlyPrecipIn,Conditions,Clouds,dailyrainin,SoftwareType,DateUTC
2013-08-20 00:07:00,65.7,64.0,30.05,NE,38,0.0,0.0,93,0.00,,,0.00,weatherlink.com 1.10,2013-08-20 05:07:00,
2013-08-20 00:22:00,65.5,64.0,30.05,NE,38,0.0,0.0,93,0.00,,,0.00,weatherlink.com 1.10,2013-08-20 05:22:00,
2013-08-20 00:37:00,65.2,63.0,30.05,NE,38,0.0,0.0,93,0.00,,,0.00,weatherlink.com 1.10,2013-08-20 05:37:00,
2013-08-20 00:52:00,65.0,63.0,30.05,NE,38,0.0,0.0,93,0.00,,,0.00,weatherlink.com 1.10,2013-08-20 05:52:00,
2013-08-20 01:07:00,64.9,63.0,30.04,NE,38,0.0,0.0,93,0.00,,,0.00,weatherlink.com 1.10,2013-08-20 06:07:00,
2013-08-20 01:22:00,64.9,63.0,30.04,NE,38,0.0,0.0,93,0.00,,,0.00,weatherlink.com 1.10,2013-08-20 06:22:00,
2013-08-20 01:37:00,64.7,63.0,30.04,NE,38,0.0,0.0,93,0.00,,,0.00,weatherlink.com 1.10,2013-08-20 06:37:00,
2013-08-20 01:52:00,64.7,63.0,30.04,NE,38,0.0,0.0,94,0.00,,,0.00,weatherlink.com 1.10,2013-08-20 06:52:00,
2013-08-20 02:07:00,64.5,63.0,30.04,NE,38,0.0,0.0,94,0.00,,,0.00,weatherlink.com 1.10,2013-08-20 07:07:00,
2013-08-20 02:22:00,64.3,62.0,30.04,NE,38,0.0,0.0,93,0.00,,,0.00,weatherlink.com 1.10,2013-08-20 07:22:00,
2013-08-20 02:37:00,64.1,62.0,30.04,NE,38,0.0,0.0,94,0.00,,,0.00,weatherlink.com 1.10,2013-08-20 07:37:00,
2013-08-20 02:52:00,63.9,62.0,30.04,NE,38,0.0,0.0,94,0.00,,,0.00,weatherlink.com 1.10,2013-08-20 07:52:00,
2013-08-20 03:07:00,63.7,62.0,30.04,NE,38,0.0,0.0,93,0.00,,,0.00,weatherlink.com 1.10,2013-08-20 08:07:00,
2013-08-20 03:22:00,63.6,62.0,30.03,NE,38,0.0,0.0,94,0.00,,,0.00,weatherlink.com 1.10,2013-08-20 08:22:00,
2013-08-20 03:37:00,63.6,62.0,30.04,NE,38,0.0,0.0,94,0.00,,,0.00,weatherlink.com 1.10,2013-08-20 08:37:00,
2013-08-20 03:52:00,63.5,62.0,30.04,NE,38,0.0,0.0,94,0.00,,,0.00,weatherlink.com 1.10,2013-08-20 08:52:00,
2013-08-20 04:07:00,63.4,62.0,30.04,NE,38,0.0,0.0,94,0.00,,,0.00,weatherlink.com 1.10,2013-08-20 09:07:00,
2013-08-20 04:22:00,63.5,62.0,30.04,NE,38,0.0,0.0,94,0.00,,,0.00,weatherlink.com 1.10,2013-08-20 09:22:00,
2013-08-20 04:37:00,63.3,62.0,30.03,NE,38,0.0,0.0,94,0.00,,,0.00,weatherlink.com 1.10,2013-08-20 09:37:00,
2013-08-20 04:52:00,63.1,61.0,30.04,NE,38,0.0,0.0,94,0.00,,,0.00,weatherlink.com 1.10,2013-08-20 09:52:00,
2013-08-20 05:07:00,63.1,61.0,30.05,NE,38,0.0,0.0,94,0.00,,,0.00,weatherlink.com 1.10,2013-08-20 10:07:00,
2013-08-20 05:22:00,63.1,61.0,30.04,NE,38,0.0,0.0,94,0.00,,,0.00,weatherlink.com 1.10,2013-08-20 10:22:00,
2013-08-20 05:37:00,63.0,61.0,30.05,NE,38,0.0,0.0,94,0.00,,,0.00,weatherlink.com 1.10,2013-08-20 10:37:00,
2013-08-20 05:52:00,62.9,61.0,30.05,NE,38,0.0,0.0,94,0.00,,,0.00,weatherlink.com 1.10,2013-08-20 10:52:00,
2013-08-20 06:07:00,62.9,61.0,30.06,NE,38,0.0,0.0,94,0.00,,,0.00,weatherlink.com 1.10,2013-08-20 11:07:00,
2013-08-20 06:22:00,62.8,61.0,30.07,NE,38,0.0,0.0,94,0.00,,,0.00,weatherlink.com 1.10,2013-08-20 11:22:00,
2013-08-20 06:37:00,62.8,61.0,30.07,NE,38,0.0,0.0,95,0.00,,,0.00,weatherlink.com 1.10,2013-08-20 11:37:00,
2013-08-20 06:52:00,62.9,62.0,30.07,NE,38,0.0,0.0,95,0.00,,,0.00,weatherlink.com 1.10,2013-08-20 11:52:00,
2013-08-20 07:07:00,63.2,62.0,30.08,NE,38,0.0,0.0,95,0.00,,,0.00,weatherlink.com 1.10,2013-08-20 12:07:00,
2013-08-20 07:22:00,63.8,62.0,30.08,NE,38,0.0,0.0,95,0.00,,,0.00,weatherlink.com 1.10,2013-08-20 12:22:00,
2013-08-20 07:37:00,64.7,63.0,30.08,NE,38,0.0,0.0,95,0.00,,,0.00,weatherlink.com 1.10,2013-08-20 12:37:00,
2013-08-20 07:52:00,65.9,65.0,30.08,NE,38,0.0,0.0,95,0.00,,,0.00,weatherlink.com 1.10,2013-08-20 12:52:00,
2013-08-20 08:07:00,67.5,66.0,30.08,NE,38,0.0,0.0,96,0.00,,,0.00,weatherlink.com 1.10,2013-08-20 13:07:00,
2013-08-20 08:22:00,69.5,68.0,30.08,NE,38,0.0,1.0,96,0.00,,,0.00,weatherlink.com 1.10,2013-08-20 13:22:00,
2013-08-20 08:38:00,70.8,70.0,30.09,NNE,24,0.0,3.0,96,0.00,,,0.00,weatherlink.com 1.10,2013-08-20 13:38:00,
2013-08-20 08:53:00,71.8,71.0,30.09,NNE,24,0.0,2.0,96,0.00,,,0.00,weatherlink.com 1.10,2013-08-20 13:53:00,
2013-08-20 09:08:00,73.0,72.0,30.09,NNE,28,0.0,1.0,95,0.00,,,0.00,weatherlink.com 1.10,2013-08-20 14:08:00,
2013-08-20 09:23:00,74.1,72.0,30.09,NNE,28,0.0,1.0,92,0.00,,,0.00,weatherlink.com 1.10,2013-08-20 14:23:00,
2013-08-20 09:38:00,75.4,72.0,30.09,NNE,28,0.0,2.0,89,0.00,,,0.00,weatherlink.com 1.10,2013-08-20 14:38:00,
2013-08-20 09:53:00,76.4,72.0,30.09,NE,41,0.0,3.0,86,0.00,,,0.00,weatherlink.com 1.10,2013-08-20 14:53:00,
2013-08-20 10:08:00,77.5,71.0,30.09,NE,53,1.0,4.0,81,0.00,,,0.00,weatherlink.com 1.10,2013-08-20 15:08:00,
2013-08-20 10:23:00,78.3,71.0,30.09,SSE,148,1.0,1.0,79,0.00,,,0.00,weatherlink.com 1.10,2013-08-20 15:23:00,
2013-08-20 10:38:00,78.8,72.0,30.09,NE,39,0.0,1.0,79,0.00,,,0.00,weatherlink.com 1.10,2013-08-20 15:38:00,
2013-08-20 10:53:00,79.4,72.0,30.09,NE,50,0.0,2.0,78,0.00,,,0.00,weatherlink.com 1.10,2013-08-20 15:53:00,
2013-08-20 11:08:00,79.7,72.0,30.09,NE,45,0.0,1.0,78,0.00,,,0.00,weatherlink.com 1.10,2013-08-20 16:08:00,
2013-08-20 11:23:00,80.1,72.0,30.09,West,269,0.0,2.0,75,0.00,,,0.00,weatherlink.com 1.10,2013-08-20 16:23:00,
2013-08-20 11:38:00,80.6,72.0,30.09,NE,55,0.0,4.0,74,0.00,,,0.00,weatherlink.com 1.10,2013-08-20 16:38:00,
2013-08-20 11:53:00,80.6,73.0,30.09,NE,51,0.0,1.0,77,0.00,,,0.00,weatherlink.com 1.10,2013-08-20 16:53:00,
2013-08-20 12:08:00,80.6,74.0,30.09,NE,51,0.0,0.0,79,0.00,,,0.00,weatherlink.com 1.10,2013-08-20 17:08:00,
2013-08-20 12:23:00,80.7,72.0,30.08,SW,216,0.0,3.0,74,0.00,,,0.00,weatherlink.com 1.10,2013-08-20 17:23:00,
2013-08-20 12:38:00,81.8,70.0,30.08,North,354,0.0,3.0,67,0.00,,,0.00,weatherlink.com 1.10,2013-08-20 17:38:00,
2013-08-20 12:53:00,82.2,72.0,30.07,South,180,1.0,4.0,71,0.00,,,0.00,weatherlink.com 1.10,2013-08-20 17:53:00,
2013-08-20 13:08:00,82.9,72.0,30.07,ESE,118,0.0,2.0,70,0.00,,,0.00,weatherlink.com 1.10,2013-08-20 18:08:00,
2013-08-20 13:23:00,83.3,71.0,30.06,NNE,22,2.0,4.0,67,0.00,,,0.00,weatherlink.com 1.10,2013-08-20 18:23:00,
2013-08-20 13:38:00,83.7,73.0,30.06,SSE,157,0.0,2.0,70,0.00,,,0.00,weatherlink.com 1.10,2013-08-20 18:38:00,
2013-08-20 13:53:00,84.6,71.0,30.06,SW,219,0.0,3.0,63,0.00,,,0.00,weatherlink.com 1.10,2013-08-20 18:53:00,
2013-08-20 14:08:00,85.1,72.0,30.05,NE,53,0.0,5.0,64,0.00,,,0.00,weatherlink.com 1.10,2013-08-20 19:08:00,
2013-08-20 14:23:00,84.2,72.0,30.05,NE,42,0.0,1.0,67,0.00,,,0.00,weatherlink.com 1.10,2013-08-20 19:23:00,
2013-08-20 14:38:00,83.5,73.0,30.04,NE,42,0.0,1.0,70,0.00,,,0.00,weatherlink.com 1.10,2013-08-20 19:38:00,
2013-08-20 14:53:00,84.2,72.0,30.03,NNE,22,0.0,2.0,67,0.00,,,0.00,weatherlink.com 1.10,2013-08-20 19:53:00,
2013-08-20 15:09:00,84.4,71.0,30.03,NE,51,0.0,4.0,65,0.00,,,0.00,weatherlink.com 1.10,2013-08-20 20:09:00,
2013-08-20 15:24:00,84.0,74.0,30.03,NE,50,0.0,0.0,71,0.00,,,0.00,weatherlink.com 1.10,2013-08-20 20:24:00,
2013-08-20 15:39:00,84.1,72.0,30.02,NE,50,0.0,0.0,67,0.00,,,0.00,weatherlink.com 1.10,2013-08-20 20:39:00,
2013-08-20 15:54:00,86.6,71.0,30.02,NNW,339,0.0,2.0,60,0.00,,,0.00,weatherlink.com 1.10,2013-08-20 20:54:00,
2013-08-20 16:09:00,87.8,70.0,30.02,NNW,338,0.0,2.0,55,0.00,,,0.00,weatherlink.com 1.10,2013-08-20 21:09:00,
2013-08-20 16:24:00,88.8,71.0,30.02,North,3,0.0,1.0,55,0.00,,,0.00,weatherlink.com 1.10,2013-08-20 21:24:00,
2013-08-20 16:39:00,89.0,72.0,30.01,NW,320,0.0,1.0,57,0.00,,,0.00,weatherlink.com 1.10,2013-08-20 21:39:00,
2013-08-20 16:54:00,88.7,73.0,30.01,SSW,193,0.0,2.0,59,0.00,,,0.00,weatherlink.com 1.10,2013-08-20 21:54:00,
2013-08-20 17:09:00,88.1,71.0,30.01,SSW,193,0.0,0.0,58,0.00,,,0.00,weatherlink.com 1.10,2013-08-20 22:09:00,
2013-08-20 17:24:00,87.3,72.0,30.01,NE,54,2.0,4.0,61,0.00,,,0.00,weatherlink.com 1.10,2013-08-20 22:24:00,
2013-08-20 17:39:00,85.4,73.0,30.01,NE,46,0.0,2.0,67,0.00,,,0.00,weatherlink.com 1.10,2013-08-20 22:39:00,
2013-08-20 17:54:00,83.8,73.0,30.01,NE,46,0.0,1.0,71,0.00,,,0.00,weatherlink.com 1.10,2013-08-20 22:54:00,
2013-08-20 18:09:00,83.0,74.0,30.01,NE,45,0.0,1.0,74,0.00,,,0.00,weatherlink.com 1.10,2013-08-20 23:09:00,
2013-08-20 18:24:00,82.6,75.0,30.01,NE,45,0.0,0.0,78,0.00,,,0.00,weatherlink.com 1.10,2013-08-20 23:24:00,
2013-08-20 18:39:00,81.7,75.0,30.01,NE,45,0.0,0.0,79,0.00,,,0.00,weatherlink.com 1.10,2013-08-20 23:39:00,
2013-08-20 18:54:00,80.4,74.0,30.02,NE,45,0.0,0.0,81,0.00,,,0.00,weatherlink.com 1.10,2013-08-20 23:54:00,
2013-08-20 19:09:00,79.8,74.0,30.02,NE,45,0.0,0.0,83,0.00,,,0.00,weatherlink.com 1.10,2013-08-21 00:09:00,
2013-08-20 19:24:00,78.8,74.0,30.03,NE,45,0.0,0.0,84,0.00,,,0.00,weatherlink.com 1.10,2013-08-21 00:24:00,
2013-08-20 19:39:00,77.8,73.0,30.03,NE,45,0.0,0.0,85,0.00,,,0.00,weatherlink.com 1.10,2013-08-21 00:39:00,
2013-08-20 19:54:00,76.9,73.0,30.03,NE,45,0.0,0.0,86,0.00,,,0.00,weatherlink.com 1.10,2013-08-21 00:54:00,
2013-08-20 20:09:00,75.7,72.0,30.03,NE,45,0.0,0.0,87,0.00,,,0.00,weatherlink.com 1.10,2013-08-21 01:09:00,
2013-08-20 20:24:00,74.9,72.0,30.04,SE,142,0.0,3.0,89,0.00,,,0.00,weatherlink.com 1.10,2013-08-21 01:24:00,
2013-08-20 20:39:00,74.3,71.0,30.04,SE,142,0.0,0.0,89,0.00,,,0.00,weatherlink.com 1.10,2013-08-21 01:39:00,
2013-08-20 20:54:00,73.8,71.0,30.04,SE,142,0.0,0.0,90,0.00,,,0.00,weatherlink.com 1.10,2013-08-21 01:54:00,
2013-08-20 21:09:00,73.4,70.0,30.04,SE,142,0.0,0.0,90,0.00,,,0.00,weatherlink.com 1.10,2013-08-21 02:09:00,
2013-08-20 21:24:00,72.7,70.0,30.05,SE,142,0.0,0.0,90,0.00,,,0.00,weatherlink.com 1.10,2013-08-21 02:24:00,
2013-08-20 21:39:00,72.2,70.0,30.05,ESE,120,0.0,1.0,91,0.00,,,0.00,weatherlink.com 1.10,2013-08-21 02:39:00,
2013-08-20 21:54:00,71.8,69.0,30.05,ESE,120,0.0,0.0,91,0.00,,,0.00,weatherlink.com 1.10,2013-08-21 02:54:00,
2013-08-20 22:09:00,71.4,69.0,30.06,ESE,107,0.0,0.0,91,0.00,,,0.00,weatherlink.com 1.10,2013-08-21 03:09:00,
2013-08-20 22:24:00,71.1,69.0,30.06,ESE,107,0.0,1.0,92,0.00,,,0.00,weatherlink.com 1.10,2013-08-21 03:24:00,
2013-08-20 22:39:00,70.7,68.0,30.06,ESE,107,0.0,0.0,92,0.00,,,0.00,weatherlink.com 1.10,2013-08-21 03:39:00,
2013-08-20 22:54:00,70.5,68.0,30.06,ESE,107,0.0,0.0,92,0.00,,,0.00,weatherlink.com 1.10,2013-08-21 03:54:00,
2013-08-20 23:09:00,70.1,68.0,30.06,ESE,107,0.0,0.0,92,0.00,,,0.00,weatherlink.com 1.10,2013-08-21 04:09:00,
2013-08-20 23:24:00,69.7,67.0,30.06,ESE,107,0.0,0.0,92,0.00,,,0.00,weatherlink.com 1.10,2013-08-21 04:24:00,
2013-08-20 23:39:00,69.5,67.0,30.06,ESE,107,0.0,0.0,92,0.00,,,0.00,weatherlink.com 1.10,2013-08-21 04:39:00,
2013-08-20 23:54:00,69.1,67.0,30.06,ESE,107,0.0,0.0,92,0.00,,,0.00,weatherlink.com 1.10,2013-08-21 04:54:00,